KFAY/FAY METAR and TAF weather

Enter ICAO airport designator
Station Type Date Time Source
KFAY METAR 2019/10/18 11:53 UTC NOAA

KFAY 181153Z 28004KT 10SM CLR 09/04 A3001 RMK AO2 SLP157 T00890039 10122 20078 51010


Station Type Date Time Source
KFAY Decoded METAR 2019/10/18 11:53 UTC NOAA

FAYETTEVILLE REGIONAL AIRPORT , NC, United States (KFAY) 34-59N 078-53W 55M
Oct 18, 2019 - 07:53 AM EDT / 2019.10.18 1153 UTC
Wind: from the W (280 degrees) at 5 MPH (4 KT):0
Visibility: 10 mile(s):0
Sky conditions: clear
Temperature: 48.0 F (8.9 C)
Dew Point: 39.0 F (3.9 C)
Relative Humidity: 70%
Pressure (altimeter): 30.01 in. Hg (1016 hPa)
Pressure tendency: 0.03 inches (1.0 hPa) higher than three hours ago
ob: KFAY 181153Z 28004KT 10SM CLR 09/04 A3001 RMK AO2 SLP157 T00890039 10122 20078 51010
cycle: 12

Station Type Date Time Source
KFAY TAF 2019/10/18 12:22 UTC NOAA

TAF KFAY 181120Z 1812/1912 30006KT P6SM SKC

Example: see airport list